Terminal Aerodrome Forecast
Issued by NWS Springfield, MO

Home | Current Version | Previous Version | Text Only | Print | Product List | Glossary On
Versions: 1 2 3 4 5 6 7 8 9 10 11 12 13 14 15 16 17 18 19
000
FTUS43 KSGF 260500
TAFSGF
TAF
KSGF 260523Z 2606/2706 17015KT P6SM SCT250 WS020/22045KT
     FM261500 17014KT P6SM BKN015 OVC025
     FM270000 16013KT P6SM OVC008=

USA.gov is the U.S. government's official web portal to all federal, state and local government web resources and services.